sensor_id;sensor_type;location;lat;lon;timestamp;P1;durP1;ratioP1;P2;durP2;ratioP2
34369;SDS011;20635;55.812;37.560;2022-09-02T00:00:35;1.25;;;0.20;;
34369;SDS011;20635;55.812;37.560;2022-09-02T00:03:01;0.22;;;0.20;;
34369;SDS011;20635;55.812;37.560;2022-09-02T00:05:28;1.17;;;0.13;;
34369;SDS011;20635;55.812;37.560;2022-09-02T00:07:53;1.50;;;0.20;;
34369;SDS011;20635;55.812;37.560;2022-09-02T00:10:19;0.28;;;0.10;;
34369;SDS011;20635;55.812;37.560;2022-09-02T00:12:45;0.10;;;0.10;;
34369;SDS011;20635;55.812;37.560;2022-09-02T00:15:12;0.85;;;0.20;;
34369;SDS011;20635;55.812;37.560;2022-09-02T00:17:38;0.85;;;0.17;;
34369;SDS011;20635;55.812;37.560;2022-09-02T00:20:04;1.58;;;0.15;;
34369;SDS011;20635;55.812;37.560;2022-09-02T00:22:30;0.25;;;0.15;;
34369;SDS011;20635;55.812;37.560;2022-09-02T00:24:56;0.13;;;0.10;;
34369;SDS011;20635;55.812;37.560;2022-09-02T00:27:22;0.65;;;0.28;;
34369;SDS011;20635;55.812;37.560;2022-09-02T00:29:47;0.32;;;0.20;;
34369;SDS011;20635;55.812;37.560;2022-09-02T00:32:13;0.32;;;0.17;;
34369;SDS011;20635;55.812;37.560;2022-09-02T00:34:39;0.30;;;0.20;;
34369;SDS011;20635;55.812;37.560;2022-09-02T00:37:05;0.77;;;0.30;;
34369;SDS011;20635;55.812;37.560;2022-09-02T00:39:31;0.40;;;0.20;;
34369;SDS011;20635;55.812;37.560;2022-09-02T00:41:57;0.47;;;0.20;;
34369;SDS011;20635;55.812;37.560;2022-09-02T00:44:23;3.30;;;0.50;;
34369;SDS011;20635;55.812;37.560;2022-09-02T00:46:49;2.63;;;0.20;;
34369;SDS011;20635;55.812;37.560;2022-09-02T00:51:54;8.52;;;0.40;;
34369;SDS011;20635;55.812;37.560;2022-09-02T00:54:26;0.10;;;0.10;;
34369;SDS011;20635;55.812;37.560;2022-09-02T00:56:54;0.20;;;0.20;;
34369;SDS011;20635;55.812;37.560;2022-09-02T00:59:26;1.52;;;0.10;;
34369;SDS011;20635;55.812;37.560;2022-09-02T01:02:07;2.30;;;0.20;;
34369;SDS011;20635;55.812;37.560;2022-09-02T01:04:34;0.28;;;0.17;;
34369;SDS011;20635;55.812;37.560;2022-09-02T01:07:00;0.47;;;0.20;;
34369;SDS011;20635;55.812;37.560;2022-09-02T01:09:27;1.33;;;0.10;;
34369;SDS011;20635;55.812;37.560;2022-09-02T01:11:56;0.10;;;0.10;;
34369;SDS011;20635;55.812;37.560;2022-09-02T01:14:22;1.85;;;0.10;;
34369;SDS011;20635;55.812;37.560;2022-09-02T01:16:50;1.40;;;0.20;;
34369;SDS011;20635;55.812;37.560;2022-09-02T01:21:51;0.45;;;0.13;;
34369;SDS011;20635;55.812;37.560;2022-09-02T01:24:19;0.43;;;0.20;;
34369;SDS011;20635;55.812;37.560;2022-09-02T01:26:47;0.17;;;0.17;;
34369;SDS011;20635;55.812;37.560;2022-09-02T01:29:16;1.15;;;0.03;;
34369;SDS011;20635;55.812;37.560;2022-09-02T01:31:42;0.88;;;0.10;;
34369;SDS011;20635;55.812;37.560;2022-09-02T01:34:08;0.95;;;0.10;;
34369;SDS011;20635;55.812;37.560;2022-09-02T01:36:39;0.28;;;0.10;;
34369;SDS011;20635;55.812;37.560;2022-09-02T01:39:06;0.03;;;0.03;;
34369;SDS011;20635;55.812;37.560;2022-09-02T01:41:34;0.10;;;0.10;;
34369;SDS011;20635;55.812;37.560;2022-09-02T01:44:00;0.00;;;0.00;;
34369;SDS011;20635;55.812;37.560;2022-09-02T01:46:26;0.43;;;0.15;;
34369;SDS011;20635;55.812;37.560;2022-09-02T01:48:52;0.38;;;0.20;;
34369;SDS011;20635;55.812;37.560;2022-09-02T01:51:19;1.23;;;0.00;;
34369;SDS011;20635;55.812;37.560;2022-09-02T01:53:45;0.10;;;0.00;;
34369;SDS011;20635;55.812;37.560;2022-09-02T01:56:13;5.65;;;0.17;;
34369;SDS011;20635;55.812;37.560;2022-09-02T01:58:40;0.00;;;0.00;;
34369;SDS011;20635;55.812;37.560;2022-09-02T02:01:07;1.10;;;0.10;;
34369;SDS011;20635;55.812;37.560;2022-09-02T02:03:34;0.15;;;0.03;;
34369;SDS011;20635;55.812;37.560;2022-09-02T02:06:01;1.13;;;0.03;;
34369;SDS011;20635;55.812;37.560;2022-09-02T02:08:34;0.10;;;0.10;;
34369;SDS011;20635;55.812;37.560;2022-09-02T02:11:01;0.17;;;0.10;;
34369;SDS011;20635;55.812;37.560;2022-09-02T02:13:28;0.05;;;0.03;;
34369;SDS011;20635;55.812;37.560;2022-09-02T02:15:55;0.20;;;0.17;;
34369;SDS011;20635;55.812;37.560;2022-09-02T02:18:21;1.55;;;0.10;;
34369;SDS011;20635;55.812;37.560;2022-09-02T02:20:47;0.30;;;0.10;;
34369;SDS011;20635;55.812;37.560;2022-09-02T02:23:13;0.43;;;0.10;;
34369;SDS011;20635;55.812;37.560;2022-09-02T02:25:39;0.10;;;0.10;;
34369;SDS011;20635;55.812;37.560;2022-09-02T02:28:05;0.80;;;0.10;;
34369;SDS011;20635;55.812;37.560;2022-09-02T02:30:31;0.25;;;0.03;;
34369;SDS011;20635;55.812;37.560;2022-09-02T02:32:58;0.60;;;0.20;;
34369;SDS011;20635;55.812;37.560;2022-09-02T02:35:24;1.25;;;0.20;;
34369;SDS011;20635;55.812;37.560;2022-09-02T02:37:51;0.80;;;0.10;;
34369;SDS011;20635;55.812;37.560;2022-09-02T02:40:18;0.03;;;0.03;;
34369;SDS011;20635;55.812;37.560;2022-09-02T02:42:47;0.17;;;0.10;;
34369;SDS011;20635;55.812;37.560;2022-09-02T02:45:14;0.20;;;0.10;;
34369;SDS011;20635;55.812;37.560;2022-09-02T02:47:40;1.35;;;0.05;;
34369;SDS011;20635;55.812;37.560;2022-09-02T02:50:11;0.10;;;0.10;;
34369;SDS011;20635;55.812;37.560;2022-09-02T02:52:38;0.20;;;0.00;;
34369;SDS011;20635;55.812;37.560;2022-09-02T02:55:06;0.10;;;0.10;;
34369;SDS011;20635;55.812;37.560;2022-09-02T02:57:33;9.27;;;0.20;;
34369;SDS011;20635;55.812;37.560;2022-09-02T03:02:38;0.22;;;0.10;;
34369;SDS011;20635;55.812;37.560;2022-09-02T03:05:04;1.00;;;0.20;;
34369;SDS011;20635;55.812;37.560;2022-09-02T03:07:31;1.40;;;0.20;;
34369;SDS011;20635;55.812;37.560;2022-09-02T03:09:57;0.17;;;0.17;;
34369;SDS011;20635;55.812;37.560;2022-09-02T03:12:23;0.15;;;0.00;;
34369;SDS011;20635;55.812;37.560;2022-09-02T03:14:50;0.10;;;0.10;;
34369;SDS011;20635;55.812;37.560;2022-09-02T03:17:18;0.08;;;0.08;;
34369;SDS011;20635;55.812;37.560;2022-09-02T03:19:44;0.10;;;0.10;;
34369;SDS011;20635;55.812;37.560;2022-09-02T03:22:10;0.08;;;0.05;;
34369;SDS011;20635;55.812;37.560;2022-09-02T03:24:36;0.30;;;0.30;;
34369;SDS011;20635;55.812;37.560;2022-09-02T03:27:02;0.55;;;0.00;;
34369;SDS011;20635;55.812;37.560;2022-09-02T03:29:29;1.20;;;0.30;;
34369;SDS011;20635;55.812;37.560;2022-09-02T03:31:56;0.10;;;0.10;;
34369;SDS011;20635;55.812;37.560;2022-09-02T03:34:22;0.68;;;0.10;;
34369;SDS011;20635;55.812;37.560;2022-09-02T03:36:48;1.92;;;0.10;;
34369;SDS011;20635;55.812;37.560;2022-09-02T03:39:15;1.00;;;0.10;;
34369;SDS011;20635;55.812;37.560;2022-09-02T03:41:42;0.10;;;0.10;;
34369;SDS011;20635;55.812;37.560;2022-09-02T03:44:10;0.47;;;0.47;;
34369;SDS011;20635;55.812;37.560;2022-09-02T03:46:37;0.10;;;0.10;;
34369;SDS011;20635;55.812;37.560;2022-09-02T03:49:04;0.30;;;0.13;;
34369;SDS011;20635;55.812;37.560;2022-09-02T03:51:30;0.22;;;0.10;;
34369;SDS011;20635;55.812;37.560;2022-09-02T03:53:57;2.45;;;0.20;;
34369;SDS011;20635;55.812;37.560;2022-09-02T03:56:24;0.03;;;0.03;;
34369;SDS011;20635;55.812;37.560;2022-09-02T03:58:50;0.50;;;0.10;;
34369;SDS011;20635;55.812;37.560;2022-09-02T04:03:50;0.10;;;0.08;;
34369;SDS011;20635;55.812;37.560;2022-09-02T04:06:36;0.15;;;0.00;;
34369;SDS011;20635;55.812;37.560;2022-09-02T04:09:03;0.82;;;0.10;;
34369;SDS011;20635;55.812;37.560;2022-09-02T04:11:31;1.00;;;0.10;;
34369;SDS011;20635;55.812;37.560;2022-09-02T04:13:58;1.52;;;0.17;;
34369;SDS011;20635;55.812;37.560;2022-09-02T04:16:25;0.22;;;0.00;;
34369;SDS011;20635;55.812;37.560;2022-09-02T04:18:58;1.08;;;0.00;;
34369;SDS011;20635;55.812;37.560;2022-09-02T04:21:27;1.65;;;0.32;;
34369;SDS011;20635;55.812;37.560;2022-09-02T04:23:55;0.45;;;0.10;;
34369;SDS011;20635;55.812;37.560;2022-09-02T04:26:21;1.00;;;0.35;;
34369;SDS011;20635;55.812;37.560;2022-09-02T04:28:51;0.10;;;0.08;;
34369;SDS011;20635;55.812;37.560;2022-09-02T04:31:22;0.63;;;0.13;;
34369;SDS011;20635;55.812;37.560;2022-09-02T04:33:51;9.82;;;0.38;;
34369;SDS011;20635;55.812;37.560;2022-09-02T04:36:18;5.57;;;0.30;;
34369;SDS011;20635;55.812;37.560;2022-09-02T04:38:47;1.42;;;0.28;;
34369;SDS011;20635;55.812;37.560;2022-09-02T04:41:17;11.77;;;0.40;;
34369;SDS011;20635;55.812;37.560;2022-09-02T04:43:48;5.57;;;0.32;;
34369;SDS011;20635;55.812;37.560;2022-09-02T04:46:15;2.55;;;0.50;;
34369;SDS011;20635;55.812;37.560;2022-09-02T04:48:43;4.32;;;0.50;;
34369;SDS011;20635;55.812;37.560;2022-09-02T04:51:11;2.83;;;0.30;;
34369;SDS011;20635;55.812;37.560;2022-09-02T04:53:40;2.55;;;0.43;;
34369;SDS011;20635;55.812;37.560;2022-09-02T04:56:07;3.65;;;0.40;;
34369;SDS011;20635;55.812;37.560;2022-09-02T04:58:36;1.17;;;0.47;;
34369;SDS011;20635;55.812;37.560;2022-09-02T05:01:05;0.65;;;0.10;;
34369;SDS011;20635;55.812;37.560;2022-09-02T05:03:43;2.50;;;0.20;;
34369;SDS011;20635;55.812;37.560;2022-09-02T05:06:11;1.48;;;0.28;;
34369;SDS011;20635;55.812;37.560;2022-09-02T05:08:40;2.40;;;0.25;;
34369;SDS011;20635;55.812;37.560;2022-09-02T05:11:08;1.48;;;0.20;;
34369;SDS011;20635;55.812;37.560;2022-09-02T05:13:36;0.75;;;0.17;;
34369;SDS011;20635;55.812;37.560;2022-09-02T05:16:03;2.17;;;0.20;;
34369;SDS011;20635;55.812;37.560;2022-09-02T05:18:29;0.77;;;0.10;;
34369;SDS011;20635;55.812;37.560;2022-09-02T05:20:56;0.35;;;0.30;;
34369;SDS011;20635;55.812;37.560;2022-09-02T05:23:22;0.60;;;0.20;;
34369;SDS011;20635;55.812;37.560;2022-09-02T05:25:48;3.95;;;0.30;;
34369;SDS011;20635;55.812;37.560;2022-09-02T05:28:15;0.20;;;0.10;;
34369;SDS011;20635;55.812;37.560;2022-09-02T05:30:42;0.82;;;0.20;;
34369;SDS011;20635;55.812;37.560;2022-09-02T05:33:09;1.27;;;0.10;;
34369;SDS011;20635;55.812;37.560;2022-09-02T05:35:40;0.75;;;0.20;;
34369;SDS011;20635;55.812;37.560;2022-09-02T05:38:08;2.70;;;0.40;;
34369;SDS011;20635;55.812;37.560;2022-09-02T05:40:35;4.72;;;0.30;;
34369;SDS011;20635;55.812;37.560;2022-09-02T05:43:04;1.75;;;0.20;;
34369;SDS011;20635;55.812;37.560;2022-09-02T05:45:31;8.35;;;0.60;;
34369;SDS011;20635;55.812;37.560;2022-09-02T05:47:59;5.15;;;0.47;;
34369;SDS011;20635;55.812;37.560;2022-09-02T05:50:46;5.45;;;0.45;;
34369;SDS011;20635;55.812;37.560;2022-09-02T05:53:12;10.20;;;0.60;;
34369;SDS011;20635;55.812;37.560;2022-09-02T05:55:38;5.00;;;0.35;;
34369;SDS011;20635;55.812;37.560;2022-09-02T05:58:04;8.95;;;0.88;;
34369;SDS011;20635;55.812;37.560;2022-09-02T06:00:32;5.65;;;0.88;;
34369;SDS011;20635;55.812;37.560;2022-09-02T06:02:59;3.97;;;0.60;;
34369;SDS011;20635;55.812;37.560;2022-09-02T06:05:30;6.47;;;0.60;;
34369;SDS011;20635;55.812;37.560;2022-09-02T06:08:07;6.22;;;0.50;;
34369;SDS011;20635;55.812;37.560;2022-09-02T06:10:39;11.02;;;0.80;;
34369;SDS011;20635;55.812;37.560;2022-09-02T06:13:06;15.90;;;1.35;;
34369;SDS011;20635;55.812;37.560;2022-09-02T06:15:33;8.80;;;1.40;;
34369;SDS011;20635;55.812;37.560;2022-09-02T06:18:00;10.65;;;0.80;;
34369;SDS011;20635;55.812;37.560;2022-09-02T06:20:28;7.57;;;0.70;;
34369;SDS011;20635;55.812;37.560;2022-09-02T06:22:57;9.63;;;0.95;;
34369;SDS011;20635;55.812;37.560;2022-09-02T06:25:23;11.27;;;1.00;;
34369;SDS011;20635;55.812;37.560;2022-09-02T06:27:50;8.18;;;1.30;;
34369;SDS011;20635;55.812;37.560;2022-09-02T06:30:16;11.70;;;1.20;;
34369;SDS011;20635;55.812;37.560;2022-09-02T06:32:42;6.72;;;1.38;;
34369;SDS011;20635;55.812;37.560;2022-09-02T06:35:09;7.65;;;1.20;;
34369;SDS011;20635;55.812;37.560;2022-09-02T06:37:36;17.27;;;3.42;;
34369;SDS011;20635;55.812;37.560;2022-09-02T06:40:02;19.92;;;3.40;;
34369;SDS011;20635;55.812;37.560;2022-09-02T06:42:30;20.85;;;4.25;;
34369;SDS011;20635;55.812;37.560;2022-09-02T06:45:28;13.75;;;2.78;;
34369;SDS011;20635;55.812;37.560;2022-09-02T06:47:57;11.23;;;2.70;;
34369;SDS011;20635;55.812;37.560;2022-09-02T06:50:24;17.77;;;3.08;;
34369;SDS011;20635;55.812;37.560;2022-09-02T06:52:52;10.18;;;2.17;;
34369;SDS011;20635;55.812;37.560;2022-09-02T06:55:18;9.45;;;1.77;;
34369;SDS011;20635;55.812;37.560;2022-09-02T06:57:45;11.95;;;2.25;;
34369;SDS011;20635;55.812;37.560;2022-09-02T07:00:12;9.82;;;1.60;;
34369;SDS011;20635;55.812;37.560;2022-09-02T07:02:40;13.35;;;1.95;;
34369;SDS011;20635;55.812;37.560;2022-09-02T07:05:07;5.20;;;1.73;;
34369;SDS011;20635;55.812;37.560;2022-09-02T07:07:35;11.10;;;1.70;;
34369;SDS011;20635;55.812;37.560;2022-09-02T07:10:07;11.88;;;1.85;;
34369;SDS011;20635;55.812;37.560;2022-09-02T07:12:37;9.57;;;1.67;;
34369;SDS011;20635;55.812;37.560;2022-09-02T07:15:08;8.18;;;1.77;;
34369;SDS011;20635;55.812;37.560;2022-09-02T07:17:37;8.43;;;2.00;;
34369;SDS011;20635;55.812;37.560;2022-09-02T07:20:07;3.78;;;1.10;;
34369;SDS011;20635;55.812;37.560;2022-09-02T07:22:38;8.13;;;1.43;;
34369;SDS011;20635;55.812;37.560;2022-09-02T07:25:06;10.60;;;1.80;;
34369;SDS011;20635;55.812;37.560;2022-09-02T07:27:34;7.38;;;1.30;;
34369;SDS011;20635;55.812;37.560;2022-09-02T07:30:02;6.50;;;1.65;;
34369;SDS011;20635;55.812;37.560;2022-09-02T07:32:30;5.25;;;1.15;;
34369;SDS011;20635;55.812;37.560;2022-09-02T07:34:56;6.03;;;1.55;;
34369;SDS011;20635;55.812;37.560;2022-09-02T07:37:22;5.00;;;1.30;;
34369;SDS011;20635;55.812;37.560;2022-09-02T07:39:49;5.85;;;1.40;;
34369;SDS011;20635;55.812;37.560;2022-09-02T07:42:16;7.93;;;1.63;;
34369;SDS011;20635;55.812;37.560;2022-09-02T07:44:45;7.75;;;1.10;;
34369;SDS011;20635;55.812;37.560;2022-09-02T07:47:12;8.80;;;1.88;;
34369;SDS011;20635;55.812;37.560;2022-09-02T07:49:41;5.65;;;1.20;;
34369;SDS011;20635;55.812;37.560;2022-09-02T07:52:07;5.38;;;1.52;;
34369;SDS011;20635;55.812;37.560;2022-09-02T07:54:33;3.92;;;1.08;;
34369;SDS011;20635;55.812;37.560;2022-09-02T07:57:02;3.15;;;0.90;;
34369;SDS011;20635;55.812;37.560;2022-09-02T07:59:29;3.42;;;1.00;;
34369;SDS011;20635;55.812;37.560;2022-09-02T08:01:56;4.50;;;1.08;;
34369;SDS011;20635;55.812;37.560;2022-09-02T08:04:22;5.93;;;1.27;;
34369;SDS011;20635;55.812;37.560;2022-09-02T08:06:50;3.90;;;1.35;;
34369;SDS011;20635;55.812;37.560;2022-09-02T08:09:17;2.53;;;1.13;;
34369;SDS011;20635;55.812;37.560;2022-09-02T08:11:45;4.80;;;0.90;;
34369;SDS011;20635;55.812;37.560;2022-09-02T08:14:13;4.53;;;1.40;;
34369;SDS011;20635;55.812;37.560;2022-09-02T08:16:43;4.63;;;0.98;;
34369;SDS011;20635;55.812;37.560;2022-09-02T08:19:10;5.50;;;1.05;;
34369;SDS011;20635;55.812;37.560;2022-09-02T08:21:37;3.00;;;0.73;;
34369;SDS011;20635;55.812;37.560;2022-09-02T08:24:03;2.35;;;1.20;;
34369;SDS011;20635;55.812;37.560;2022-09-02T08:26:29;3.38;;;0.90;;
34369;SDS011;20635;55.812;37.560;2022-09-02T08:28:56;1.40;;;0.60;;
34369;SDS011;20635;55.812;37.560;2022-09-02T08:31:22;3.17;;;0.82;;
34369;SDS011;20635;55.812;37.560;2022-09-02T08:33:48;3.95;;;1.00;;
34369;SDS011;20635;55.812;37.560;2022-09-02T08:36:15;5.38;;;1.15;;
34369;SDS011;20635;55.812;37.560;2022-09-02T08:38:41;3.63;;;1.17;;
34369;SDS011;20635;55.812;37.560;2022-09-02T08:41:11;1.50;;;0.68;;
34369;SDS011;20635;55.812;37.560;2022-09-02T08:43:42;2.67;;;0.70;;
34369;SDS011;20635;55.812;37.560;2022-09-02T08:46:10;3.45;;;0.80;;
34369;SDS011;20635;55.812;37.560;2022-09-02T08:51:31;3.22;;;1.10;;
34369;SDS011;20635;55.812;37.560;2022-09-02T08:54:07;2.75;;;1.08;;
34369;SDS011;20635;55.812;37.560;2022-09-02T08:56:45;2.70;;;0.60;;
34369;SDS011;20635;55.812;37.560;2022-09-02T08:59:14;5.00;;;1.00;;
34369;SDS011;20635;55.812;37.560;2022-09-02T09:01:50;2.30;;;0.65;;
34369;SDS011;20635;55.812;37.560;2022-09-02T09:09:44;2.38;;;1.00;;
34369;SDS011;20635;55.812;37.560;2022-09-02T09:18:10;1.40;;;0.60;;
34369;SDS011;20635;55.812;37.560;2022-09-02T09:20:41;2.20;;;0.80;;
34369;SDS011;20635;55.812;37.560;2022-09-02T09:23:27;3.17;;;1.15;;
34369;SDS011;20635;55.812;37.560;2022-09-02T09:28:30;1.35;;;0.60;;
34369;SDS011;20635;55.812;37.560;2022-09-02T09:30:58;1.23;;;0.57;;
34369;SDS011;20635;55.812;37.560;2022-09-02T09:33:25;3.03;;;0.82;;
34369;SDS011;20635;55.812;37.560;2022-09-02T09:35:52;2.67;;;0.90;;
34369;SDS011;20635;55.812;37.560;2022-09-02T09:38:29;2.42;;;0.55;;
34369;SDS011;20635;55.812;37.560;2022-09-02T09:41:10;2.15;;;0.88;;
34369;SDS011;20635;55.812;37.560;2022-09-02T09:43:39;2.42;;;0.57;;
34369;SDS011;20635;55.812;37.560;2022-09-02T09:48:49;1.70;;;0.70;;
34369;SDS011;20635;55.812;37.560;2022-09-02T09:51:15;1.00;;;0.55;;
34369;SDS011;20635;55.812;37.560;2022-09-02T09:53:41;1.50;;;0.70;;
34369;SDS011;20635;55.812;37.560;2022-09-02T10:03:55;3.17;;;0.82;;
34369;SDS011;20635;55.812;37.560;2022-09-02T10:11:25;2.35;;;0.80;;
34369;SDS011;20635;55.812;37.560;2022-09-02T10:19:13;1.05;;;0.68;;
34369;SDS011;20635;55.812;37.560;2022-09-02T10:24:40;0.68;;;0.68;;
34369;SDS011;20635;55.812;37.560;2022-09-02T10:27:33;2.00;;;0.60;;
34369;SDS011;20635;55.812;37.560;2022-09-02T10:30:12;2.70;;;0.80;;
34369;SDS011;20635;55.812;37.560;2022-09-02T10:32:46;1.80;;;0.60;;
34369;SDS011;20635;55.812;37.560;2022-09-02T10:40:43;0.90;;;0.50;;
34369;SDS011;20635;55.812;37.560;2022-09-02T10:46:16;2.58;;;0.80;;
34369;SDS011;20635;55.812;37.560;2022-09-02T10:57:30;0.63;;;0.30;;
34369;SDS011;20635;55.812;37.560;2022-09-02T11:02:37;0.70;;;0.70;;
34369;SDS011;20635;55.812;37.560;2022-09-02T11:05:19;1.38;;;0.70;;
34369;SDS011;20635;55.812;37.560;2022-09-02T11:07:51;1.17;;;0.60;;
34369;SDS011;20635;55.812;37.560;2022-09-02T11:10:49;0.50;;;0.28;;
34369;SDS011;20635;55.812;37.560;2022-09-02T11:16:25;0.70;;;0.55;;
34369;SDS011;20635;55.812;37.560;2022-09-02T11:19:34;0.45;;;0.38;;
34369;SDS011;20635;55.812;37.560;2022-09-02T11:22:02;0.22;;;0.22;;
34369;SDS011;20635;55.812;37.560;2022-09-02T11:32:46;1.00;;;0.55;;
34369;SDS011;20635;55.812;37.560;2022-09-02T11:35:25;0.75;;;0.40;;
34369;SDS011;20635;55.812;37.560;2022-09-02T11:43:44;0.63;;;0.40;;
34369;SDS011;20635;55.812;37.560;2022-09-02T11:46:19;0.52;;;0.35;;
34369;SDS011;20635;55.812;37.560;2022-09-02T11:54:42;0.63;;;0.55;;
34369;SDS011;20635;55.812;37.560;2022-09-02T11:57:18;0.93;;;0.38;;
34369;SDS011;20635;55.812;37.560;2022-09-02T12:07:58;0.68;;;0.38;;
34369;SDS011;20635;55.812;37.560;2022-09-02T12:21:31;0.80;;;0.50;;
34369;SDS011;20635;55.812;37.560;2022-09-02T12:29:10;0.50;;;0.50;;
34369;SDS011;20635;55.812;37.560;2022-09-02T12:31:43;0.50;;;0.32;;
34369;SDS011;20635;55.812;37.560;2022-09-02T12:35:06;0.70;;;0.40;;
34369;SDS011;20635;55.812;37.560;2022-09-02T12:36:57;0.77;;;0.40;;
34369;SDS011;20635;55.812;37.560;2022-09-02T12:47:21;0.73;;;0.40;;
34369;SDS011;20635;55.812;37.560;2022-09-02T12:55:41;0.50;;;0.47;;
34369;SDS011;20635;55.812;37.560;2022-09-02T12:58:08;0.47;;;0.38;;
34369;SDS011;20635;55.812;37.560;2022-09-02T13:06:02;0.88;;;0.50;;
34369;SDS011;20635;55.812;37.560;2022-09-02T13:17:21;0.35;;;0.35;;
34369;SDS011;20635;55.812;37.560;2022-09-02T13:31:30;0.63;;;0.40;;
34369;SDS011;20635;55.812;37.560;2022-09-02T13:34:01;0.47;;;0.40;;
34369;SDS011;20635;55.812;37.560;2022-09-02T13:36:43;1.65;;;0.50;;
34369;SDS011;20635;55.812;37.560;2022-09-02T13:39:22;0.30;;;0.30;;
34369;SDS011;20635;55.812;37.560;2022-09-02T13:41:50;0.75;;;0.52;;
34369;SDS011;20635;55.812;37.560;2022-09-02T13:44:20;0.32;;;0.30;;
34369;SDS011;20635;55.812;37.560;2022-09-02T13:46:52;0.43;;;0.30;;
34369;SDS011;20635;55.812;37.560;2022-09-02T13:49:37;0.30;;;0.30;;
34369;SDS011;20635;55.812;37.560;2022-09-02T13:52:06;0.30;;;0.30;;
34369;SDS011;20635;55.812;37.560;2022-09-02T13:54:48;0.43;;;0.30;;
34369;SDS011;20635;55.812;37.560;2022-09-02T13:57:25;0.30;;;0.30;;
34369;SDS011;20635;55.812;37.560;2022-09-02T13:59:54;1.80;;;0.43;;
34369;SDS011;20635;55.812;37.560;2022-09-02T14:07:30;0.40;;;0.30;;
34369;SDS011;20635;55.812;37.560;2022-09-02T14:10:02;0.60;;;0.28;;
34369;SDS011;20635;55.812;37.560;2022-09-02T14:12:32;0.40;;;0.40;;
34369;SDS011;20635;55.812;37.560;2022-09-02T14:15:01;0.43;;;0.28;;
34369;SDS011;20635;55.812;37.560;2022-09-02T14:17:27;0.30;;;0.30;;
34369;SDS011;20635;55.812;37.560;2022-09-02T14:22:43;1.73;;;0.35;;
34369;SDS011;20635;55.812;37.560;2022-09-02T14:25:16;0.30;;;0.30;;
34369;SDS011;20635;55.812;37.560;2022-09-02T14:27:53;0.60;;;0.30;;
34369;SDS011;20635;55.812;37.560;2022-09-02T14:38:29;0.70;;;0.40;;
34369;SDS011;20635;55.812;37.560;2022-09-02T14:41:00;0.57;;;0.30;;
34369;SDS011;20635;55.812;37.560;2022-09-02T14:44:09;0.60;;;0.30;;
34369;SDS011;20635;55.812;37.560;2022-09-02T14:46:49;1.88;;;0.38;;
34369;SDS011;20635;55.812;37.560;2022-09-02T14:51:57;0.50;;;0.38;;
34369;SDS011;20635;55.812;37.560;2022-09-02T14:54:38;1.38;;;0.47;;
34369;SDS011;20635;55.812;37.560;2022-09-02T15:00:10;0.32;;;0.30;;
34369;SDS011;20635;55.812;37.560;2022-09-02T15:02:41;0.85;;;0.30;;
34369;SDS011;20635;55.812;37.560;2022-09-02T15:05:11;1.08;;;0.30;;
34369;SDS011;20635;55.812;37.560;2022-09-02T15:07:38;0.60;;;0.40;;
34369;SDS011;20635;55.812;37.560;2022-09-02T15:10:05;0.30;;;0.30;;
34369;SDS011;20635;55.812;37.560;2022-09-02T15:12:34;0.63;;;0.47;;
34369;SDS011;20635;55.812;37.560;2022-09-02T15:15:04;0.70;;;0.40;;
34369;SDS011;20635;55.812;37.560;2022-09-02T15:17:30;0.40;;;0.30;;
34369;SDS011;20635;55.812;37.560;2022-09-02T15:19:56;0.20;;;0.20;;
34369;SDS011;20635;55.812;37.560;2022-09-02T15:22:22;0.90;;;0.40;;
34369;SDS011;20635;55.812;37.560;2022-09-02T15:24:48;0.20;;;0.20;;
34369;SDS011;20635;55.812;37.560;2022-09-02T15:27:15;0.40;;;0.30;;
34369;SDS011;20635;55.812;37.560;2022-09-02T15:29:41;0.20;;;0.20;;
34369;SDS011;20635;55.812;37.560;2022-09-02T15:32:07;0.35;;;0.35;;
34369;SDS011;20635;55.812;37.560;2022-09-02T15:34:33;0.55;;;0.50;;
34369;SDS011;20635;55.812;37.560;2022-09-02T15:37:02;0.50;;;0.30;;
34369;SDS011;20635;55.812;37.560;2022-09-02T15:39:28;1.38;;;0.40;;
34369;SDS011;20635;55.812;37.560;2022-09-02T15:41:55;0.40;;;0.20;;
34369;SDS011;20635;55.812;37.560;2022-09-02T15:44:21;0.52;;;0.35;;
34369;SDS011;20635;55.812;37.560;2022-09-02T15:46:51;0.43;;;0.30;;
34369;SDS011;20635;55.812;37.560;2022-09-02T15:49:18;0.30;;;0.30;;
34369;SDS011;20635;55.812;37.560;2022-09-02T15:51:44;0.90;;;0.38;;
34369;SDS011;20635;55.812;37.560;2022-09-02T15:54:12;7.47;;;0.47;;
34369;SDS011;20635;55.812;37.560;2022-09-02T15:56:40;1.85;;;0.52;;
34369;SDS011;20635;55.812;37.560;2022-09-02T15:59:09;4.60;;;0.98;;
34369;SDS011;20635;55.812;37.560;2022-09-02T16:01:38;3.22;;;0.55;;
34369;SDS011;20635;55.812;37.560;2022-09-02T16:04:08;0.73;;;0.50;;
34369;SDS011;20635;55.812;37.560;2022-09-02T16:06:36;7.78;;;0.68;;
34369;SDS011;20635;55.812;37.560;2022-09-02T16:09:04;1.90;;;0.50;;
34369;SDS011;20635;55.812;37.560;2022-09-02T16:11:37;1.95;;;0.50;;
34369;SDS011;20635;55.812;37.560;2022-09-02T16:14:04;2.90;;;0.40;;
34369;SDS011;20635;55.812;37.560;2022-09-02T16:16:31;2.65;;;0.45;;
34369;SDS011;20635;55.812;37.560;2022-09-02T16:18:58;0.55;;;0.25;;
34369;SDS011;20635;55.812;37.560;2022-09-02T16:21:24;3.72;;;0.70;;
34369;SDS011;20635;55.812;37.560;2022-09-02T16:23:50;2.42;;;0.60;;
34369;SDS011;20635;55.812;37.560;2022-09-02T16:26:29;0.95;;;0.50;;
34369;SDS011;20635;55.812;37.560;2022-09-02T16:28:57;0.60;;;0.60;;
34369;SDS011;20635;55.812;37.560;2022-09-02T16:31:25;1.45;;;0.43;;
34369;SDS011;20635;55.812;37.560;2022-09-02T16:33:58;1.95;;;0.60;;
34369;SDS011;20635;55.812;37.560;2022-09-02T16:36:26;4.50;;;0.70;;
34369;SDS011;20635;55.812;37.560;2022-09-02T16:38:53;3.80;;;0.70;;
34369;SDS011;20635;55.812;37.560;2022-09-02T16:41:24;2.70;;;0.50;;
34369;SDS011;20635;55.812;37.560;2022-09-02T16:43:59;1.00;;;0.70;;
34369;SDS011;20635;55.812;37.560;2022-09-02T16:46:27;2.45;;;0.40;;
34369;SDS011;20635;55.812;37.560;2022-09-02T16:48:53;2.30;;;0.60;;
34369;SDS011;20635;55.812;37.560;2022-09-02T16:51:21;1.98;;;0.60;;
34369;SDS011;20635;55.812;37.560;2022-09-02T16:53:51;2.55;;;0.52;;
34369;SDS011;20635;55.812;37.560;2022-09-02T16:56:24;0.90;;;0.50;;
34369;SDS011;20635;55.812;37.560;2022-09-02T16:58:51;1.05;;;0.40;;
34369;SDS011;20635;55.812;37.560;2022-09-02T17:01:18;2.85;;;0.60;;
34369;SDS011;20635;55.812;37.560;2022-09-02T17:03:45;2.20;;;0.63;;
34369;SDS011;20635;55.812;37.560;2022-09-02T17:06:11;2.72;;;0.68;;
34369;SDS011;20635;55.812;37.560;2022-09-02T17:08:37;1.15;;;0.52;;
34369;SDS011;20635;55.812;37.560;2022-09-02T17:13:50;1.35;;;0.50;;
34369;SDS011;20635;55.812;37.560;2022-09-02T17:16:18;1.85;;;0.50;;
34369;SDS011;20635;55.812;37.560;2022-09-02T17:18:46;2.65;;;0.60;;
34369;SDS011;20635;55.812;37.560;2022-09-02T17:23:41;1.85;;;0.60;;
34369;SDS011;20635;55.812;37.560;2022-09-02T17:26:07;1.15;;;0.43;;
34369;SDS011;20635;55.812;37.560;2022-09-02T17:28:32;1.45;;;0.70;;
34369;SDS011;20635;55.812;37.560;2022-09-02T17:30:58;2.17;;;0.52;;
34369;SDS011;20635;55.812;37.560;2022-09-02T17:33:24;1.70;;;0.60;;
34369;SDS011;20635;55.812;37.560;2022-09-02T17:35:56;1.85;;;0.50;;
34369;SDS011;20635;55.812;37.560;2022-09-02T17:38:23;11.30;;;1.23;;
34369;SDS011;20635;55.812;37.560;2022-09-02T17:40:48;4.82;;;0.63;;
34369;SDS011;20635;55.812;37.560;2022-09-02T17:43:40;0.93;;;0.50;;
34369;SDS011;20635;55.812;37.560;2022-09-02T17:46:06;2.78;;;0.52;;
34369;SDS011;20635;55.812;37.560;2022-09-02T17:48:33;3.90;;;0.68;;